Time;durP1;ratioP1;P1;durP2;ratioP2;P2;SDS_P1;SDS_P2;PMS_P1;PMS_P2;Temp;Humidity;BMP_temperature;BMP_pressure;BME280_temperature;BME280_humidity;BME280_pressure;Samples;Min_cycle;Max_cycle;Signal;HPM_P1;HPM_P2
2022/08/08 00:02:07;;;;;;;6.88;4.60;;;17.20;99.90;;;;;;5007523;28;20042;-51
2022/08/08 00:05:08;;;;;;;8.52;5.00;;;17.10;99.90;;;;;;4929770;29;20491;-52
2022/08/08 00:07:42;;;;;;;8.18;5.40;;;17.10;99.90;;;;;;4977726;28;20464;-51
2022/08/08 00:10:31;;;;;;;9.20;5.93;;;17.10;99.90;;;;;;5004109;28;20041;-53
2022/08/08 00:13:08;;;;;;;8.35;5.53;;;17.00;99.90;;;;;;5002364;28;20073;-50
2022/08/08 00:15:40;;;;;;;8.20;5.55;;;17.00;99.90;;;;;;5007528;28;20038;-52
2022/08/08 00:18:28;;;;;;;8.77;5.57;;;16.90;99.90;;;;;;5001443;28;20038;-49
2022/08/08 00:20:57;;;;;;;9.93;5.20;;;16.80;99.90;;;;;;5002046;28;20081;-51
2022/08/08 00:23:49;;;;;;;7.40;5.22;;;16.80;99.90;;;;;;5007834;28;20053;-53
2022/08/08 00:26:22;;;;;;;8.70;5.53;;;16.70;99.90;;;;;;5005755;28;20052;-48
2022/08/08 00:28:53;;;;;;;6.53;5.07;;;16.70;99.90;;;;;;5002879;28;20046;-50
2022/08/08 00:31:31;;;;;;;6.97;4.93;;;16.60;99.90;;;;;;5006051;28;20090;-50
2022/08/08 00:37:36;;;;;;;7.20;4.93;;;16.40;99.90;;;;;;5008801;28;20129;-51
2022/08/08 00:40:29;;;;;;;6.72;4.95;;;16.30;99.90;;;;;;4989885;28;20050;-49
2022/08/08 00:43:22;;;;;;;8.77;6.00;;;16.30;99.90;;;;;;4992050;28;20042;-49
2022/08/08 00:45:53;;;;;;;7.30;5.25;;;16.30;99.90;;;;;;5010986;28;20034;-49
2022/08/08 00:48:46;;;;;;;6.55;5.03;;;16.10;99.90;;;;;;5008327;28;20048;-52
2022/08/08 00:51:49;;;;;;;7.95;5.07;;;15.80;99.90;;;;;;5014191;28;20517;-49
2022/08/08 00:54:42;;;;;;;7.50;5.07;;;15.70;99.90;;;;;;4977909;28;20109;-49
2022/08/08 00:57:45;;;;;;;9.52;5.18;;;15.60;99.90;;;;;;5005483;28;20046;-49
2022/08/08 01:00:18;;;;;;;6.72;4.28;;;15.60;99.90;;;;;;4995608;28;20097;-49
2022/08/08 01:02:50;;;;;;;6.60;4.13;;;15.50;99.90;;;;;;5012330;28;20046;-48
2022/08/08 01:05:46;;;;;;;7.18;4.35;;;15.40;99.90;;;;;;5013548;28;20073;-50
2022/08/08 01:08:52;;;;;;;6.40;4.40;;;15.40;99.90;;;;;;4996595;28;20394;-49
2022/08/08 01:11:47;;;;;;;5.82;4.35;;;15.40;99.90;;;;;;5015382;28;20088;-46
2022/08/08 01:14:25;;;;;;;5.85;3.95;;;15.40;99.90;;;;;;5013605;28;20050;-50
2022/08/08 01:17:09;;;;;;;5.90;3.78;;;15.30;99.90;;;;;;5009901;28;20042;-48
2022/08/08 01:19:53;;;;;;;4.82;3.50;;;15.20;99.90;;;;;;5010293;28;20594;-49
2022/08/08 01:22:56;;;;;;;4.55;3.50;;;15.20;99.90;;;;;;5013390;28;20053;-49
2022/08/08 01:26:26;;;;;;;4.43;3.03;;;15.20;99.90;;;;;;5000642;28;20038;-51
2022/08/08 01:29:10;;;;;;;4.65;2.95;;;15.20;99.90;;;;;;4951597;29;20088;-51
2022/08/08 01:31:59;;;;;;;6.65;3.45;;;15.20;99.90;;;;;;4952419;29;20075;-49
2022/08/08 01:34:44;;;;;;;5.70;3.38;;;15.30;99.90;;;;;;4980679;28;20050;-49
2022/08/08 01:37:28;;;;;;;;;;;15.40;99.90;;;;;;5013370;28;20517;-50
2022/08/08 01:40:20;;;;;;;5.27;3.50;;;15.50;99.90;;;;;;5011038;28;19968;-50
2022/08/08 01:43:21;;;;;;;6.05;4.00;;;15.40;99.90;;;;;;5000266;28;20274;-49
2022/08/08 01:46:04;;;;;;;4.88;3.80;;;15.50;99.90;;;;;;4961569;28;20062;-49
2022/08/08 01:48:51;;;;;;;5.65;3.97;;;15.50;99.90;;;;;;4993238;28;20536;-50
2022/08/08 01:51:46;;;;;;;6.45;3.80;;;15.60;99.90;;;;;;5001414;28;20477;-52
2022/08/08 01:54:23;;;;;;;4.75;3.70;;;15.40;99.90;;;;;;5013021;28;20033;-47
2022/08/08 01:57:04;;;;;;;5.35;3.85;;;15.50;99.90;;;;;;5004889;28;20577;-49
2022/08/08 02:00:11;;;;;;;5.15;3.90;;;15.50;99.90;;;;;;5010607;28;20034;-48
2022/08/08 02:03:05;;;;;;;7.25;3.75;;;15.50;99.90;;;;;;5000882;28;20201;-50
2022/08/08 02:06:09;;;;;;;6.25;4.03;;;15.50;99.90;;;;;;5012427;28;20046;-50
2022/08/08 02:08:53;;;;;;;5.40;4.10;;;15.50;99.90;;;;;;5008399;28;20088;-52
2022/08/08 02:11:32;;;;;;;5.82;4.18;;;15.50;99.90;;;;;;4995932;28;20038;-49
2022/08/08 02:14:07;;;;;;;6.93;4.53;;;15.50;99.90;;;;;;4993128;28;20045;-51
2022/08/08 02:16:54;;;;;;;8.05;4.28;;;15.30;99.90;;;;;;5012557;28;20041;-50
2022/08/08 02:19:44;;;;;;;5.80;4.35;;;15.30;99.90;;;;;;5012122;28;20097;-52
2022/08/08 02:22:30;;;;;;;6.95;4.40;;;15.40;99.90;;;;;;5002567;28;20046;-49
2022/08/08 02:25:05;;;;;;;4.75;3.55;;;15.40;99.90;;;;;;4996835;28;20042;-50
2022/08/08 02:28:07;;;;;;;3.65;2.63;;;15.40;99.90;;;;;;5011969;28;20037;-50
2022/08/08 02:30:40;;;;;;;4.40;2.78;;;15.40;99.90;;;;;;5011226;28;20092;-51
2022/08/08 02:33:42;;;;;;;6.18;3.50;;;15.30;99.90;;;;;;5006193;28;20077;-47
2022/08/08 02:36:22;;;;;;;4.50;2.90;;;15.30;99.90;;;;;;5010597;28;20329;-49
2022/08/08 02:39:19;;;;;;;4.38;3.10;;;15.30;99.90;;;;;;5010345;28;20100;-49
2022/08/08 02:42:03;;;;;;;3.53;2.55;;;15.20;99.90;;;;;;5010451;28;20185;-50
2022/08/08 02:45:12;;;;;;;4.75;2.50;;;15.10;99.90;;;;;;4992579;28;20052;-51
2022/08/08 02:47:58;;;;;;;4.82;2.67;;;15.00;99.90;;;;;;5007967;28;20524;-49
2022/08/08 02:50:29;;;;;;;4.03;2.55;;;14.80;99.90;;;;;;5011896;28;20044;-48
2022/08/08 02:53:04;;;;;;;3.80;2.50;;;14.80;99.90;;;;;;5011460;28;20041;-50
2022/08/08 02:55:55;;;;;;;3.30;2.25;;;14.80;99.90;;;;;;4974909;28;20076;-49
2022/08/08 02:58:30;;;;;;;4.00;2.05;;;14.60;99.90;;;;;;4997499;28;20393;-50
2022/08/08 03:01:14;;;;;;;3.50;2.20;;;14.60;99.90;;;;;;4996854;28;20046;-49
2022/08/08 03:03:42;;;;;;;5.22;2.35;;;14.60;99.90;;;;;;5007214;28;20149;-51
2022/08/08 03:06:29;;;;;;;4.43;2.78;;;14.60;99.90;;;;;;4998109;28;20482;-50
2022/08/08 03:09:26;;;;;;;4.82;3.08;;;14.70;99.90;;;;;;5011471;28;20030;-51
2022/08/08 03:12:22;;;;;;;4.00;2.88;;;14.60;99.90;;;;;;5011545;28;20042;-50
2022/08/08 03:15:05;;;;;;;5.28;3.20;;;14.50;99.90;;;;;;5011454;28;20045;-51
2022/08/08 03:17:45;;;;;;;4.43;3.13;;;14.40;99.90;;;;;;5011366;28;20389;-52
2022/08/08 03:20:12;;;;;;;5.85;4.20;;;14.40;99.90;;;;;;4995860;28;20403;-46
2022/08/08 03:22:55;;;;;;;5.35;3.85;;;14.40;99.90;;;;;;4992095;28;20065;-50
2022/08/08 03:25:25;;;;;;;4.45;3.30;;;14.40;99.90;;;;;;4991863;28;20044;-49
2022/08/08 03:27:58;;;;;;;5.78;3.80;;;14.40;99.90;;;;;;4991609;28;20043;-49
2022/08/08 03:30:25;;;;;;;5.80;4.00;;;14.40;99.90;;;;;;4991049;28;20141;-48
2022/08/08 03:35:39;;;;;;;4.65;3.67;;;14.40;99.90;;;;;;5003394;28;20113;-49
2022/08/08 03:38:05;;;;;;;5.72;3.75;;;14.40;99.90;;;;;;5009837;28;20033;-48
2022/08/08 03:40:31;;;;;;;6.15;4.07;;;14.50;99.90;;;;;;4993179;28;20034;-52
2022/08/08 03:42:57;;;;;;;6.97;4.30;;;14.50;99.90;;;;;;5003785;28;20042;-49
2022/08/08 03:45:24;;;;;;;5.63;4.22;;;14.60;99.90;;;;;;5002956;28;20490;-49
2022/08/08 03:48:01;;;;;;;5.68;3.75;;;14.60;99.90;;;;;;5009633;28;20069;-49
2022/08/08 03:50:29;;;;;;;5.35;4.22;;;14.60;99.90;;;;;;5009893;28;20048;-51
2022/08/08 03:52:55;;;;;;;6.00;4.25;;;14.60;99.90;;;;;;5011121;28;20511;-49
2022/08/08 03:55:23;;;;;;;7.13;4.78;;;14.50;99.90;;;;;;5002203;28;20034;-50
2022/08/08 03:57:54;;;;;;;5.95;4.03;;;14.50;99.90;;;;;;4991455;28;20104;-50
2022/08/08 04:00:23;;;;;;;5.25;4.00;;;14.50;99.90;;;;;;5006040;28;20038;-47
2022/08/08 04:02:59;;;;;;;6.15;4.25;;;14.50;99.90;;;;;;5005905;28;20042;-51
2022/08/08 04:05:30;;;;;;;4.85;3.90;;;14.50;99.90;;;;;;4988075;28;20105;-50
2022/08/08 04:07:57;;;;;;;5.72;4.35;;;14.50;99.90;;;;;;5009799;28;20043;-49
2022/08/08 04:10:23;;;;;;;5.65;3.80;;;14.50;99.90;;;;;;5010851;28;20057;-52
2022/08/08 04:12:49;;;;;;;5.95;4.38;;;14.50;99.90;;;;;;5010606;28;20042;-50
2022/08/08 04:15:15;;;;;;;5.80;4.38;;;14.50;99.90;;;;;;5010506;28;20041;-50
2022/08/08 04:17:41;;;;;;;6.13;4.30;;;14.60;99.90;;;;;;5006808;28;20501;-51
2022/08/08 04:20:07;;;;;;;5.47;4.00;;;14.50;99.90;;;;;;5014175;28;20046;-49
2022/08/08 04:22:33;;;;;;;5.70;4.10;;;14.50;99.90;;;;;;5012221;28;20389;-49
2022/08/08 04:24:58;;;;;;;5.93;3.83;;;14.50;99.90;;;;;;4994783;28;20047;-51
2022/08/08 04:27:24;;;;;;;6.63;4.03;;;14.40;99.90;;;;;;5001930;28;20430;-48
2022/08/08 04:29:50;;;;;;;5.88;4.10;;;14.40;99.90;;;;;;5013980;28;20030;-46
2022/08/08 04:32:16;;;;;;;5.88;4.25;;;14.40;99.90;;;;;;5004731;28;20462;-48
2022/08/08 04:34:42;;;;;;;7.03;4.03;;;14.30;99.90;;;;;;5006226;28;20397;-53
2022/08/08 04:37:08;;;;;;;7.97;5.03;;;14.30;99.90;;;;;;4999476;28;20460;-50
2022/08/08 04:39:34;;;;;;;5.90;3.95;;;14.40;99.90;;;;;;4994478;28;20038;-51
2022/08/08 04:42:00;;;;;;;5.22;4.07;;;14.40;99.90;;;;;;4994339;28;20046;-51
2022/08/08 04:44:26;;;;;;;6.05;4.05;;;14.40;99.90;;;;;;5006989;28;20124;-48
2022/08/08 04:46:51;;;;;;;5.82;4.25;;;14.40;99.90;;;;;;5013648;28;20478;-49
2022/08/08 04:49:17;;;;;;;6.40;4.50;;;14.40;99.90;;;;;;5007135;28;20038;-52
2022/08/08 04:51:43;;;;;;;5.32;4.28;;;14.40;99.90;;;;;;5014114;28;20500;-46
2022/08/08 04:54:09;;;;;;;7.45;4.97;;;14.40;99.90;;;;;;5012001;28;20497;-49
2022/08/08 04:56:34;;;;;;;6.53;4.72;;;14.40;99.90;;;;;;4994545;28;20034;-50
2022/08/08 04:59:00;;;;;;;8.15;4.93;;;14.50;99.90;;;;;;4993792;28;20061;-50
2022/08/08 05:01:26;;;;;;;6.55;4.78;;;14.50;99.90;;;;;;5012193;28;20065;-50
2022/08/08 05:03:51;;;;;;;6.53;4.50;;;14.60;99.90;;;;;;4994798;28;20189;-50
2022/08/08 05:06:17;;;;;;;5.05;3.95;;;14.60;99.90;;;;;;4993693;28;20046;-47
2022/08/08 05:08:43;;;;;;;4.55;2.83;;;14.70;99.90;;;;;;4994285;28;20038;-51
2022/08/08 05:11:12;;;;;;;5.05;3.15;;;14.70;99.90;;;;;;5012250;28;20025;-49
2022/08/08 05:13:39;;;;;;;3.92;2.70;;;14.70;99.90;;;;;;5004933;28;20041;-48
2022/08/08 05:16:05;;;;;;;4.95;2.80;;;14.70;99.90;;;;;;5007399;28;20052;-49
2022/08/08 05:18:32;;;;;;;3.25;2.40;;;14.70;99.90;;;;;;5013197;28;20053;-50
2022/08/08 05:21:10;;;;;;;3.63;2.42;;;14.70;99.90;;;;;;5012874;28;20061;-52
2022/08/08 05:23:36;;;;;;;4.90;2.90;;;14.70;99.90;;;;;;5013412;28;20042;-49
2022/08/08 05:26:02;;;;;;;5.43;3.28;;;14.80;99.90;;;;;;5013347;28;20539;-50
2022/08/08 05:28:28;;;;;;;6.45;3.30;;;14.90;99.90;;;;;;5012368;28;20042;-48
2022/08/08 05:30:54;;;;;;;6.50;3.85;;;14.90;99.90;;;;;;5003851;28;20099;-49
2022/08/08 05:33:19;;;;;;;6.45;4.35;;;15.00;99.90;;;;;;5013093;28;20118;-47
2022/08/08 05:35:46;;;;;;;6.32;4.57;;;15.00;99.90;;;;;;5013429;28;20350;-52
2022/08/08 05:38:16;;;;;;;7.53;3.97;;;15.10;99.90;;;;;;5010678;28;20037;-49
2022/08/08 05:40:46;;;;;;;7.50;3.83;;;15.20;99.90;;;;;;4993456;28;20034;-49
2022/08/08 05:43:22;;;;;;;6.20;4.03;;;15.40;99.90;;;;;;4994374;28;20038;-51
2022/08/08 05:45:49;;;;;;;8.07;4.40;;;15.60;99.90;;;;;;4994151;28;20604;-48
2022/08/08 05:48:16;;;;;;;7.43;3.97;;;15.70;99.90;;;;;;4993063;28;20038;-48
2022/08/08 05:50:42;;;;;;;6.10;3.92;;;15.80;99.90;;;;;;4996367;28;20045;-51
2022/08/08 05:53:08;;;;;;;8.15;4.38;;;15.80;99.90;;;;;;5012611;28;20038;-49
2022/08/08 05:55:35;;;;;;;10.80;4.47;;;15.90;99.90;;;;;;5012262;28;20042;-52
2022/08/08 05:58:02;;;;;;;8.38;4.75;;;15.90;99.90;;;;;;5010968;28;20084;-49
2022/08/08 06:00:31;;;;;;;9.82;4.95;;;16.00;99.90;;;;;;4992455;28;20026;-47
2022/08/08 06:03:18;;;;;;;9.40;4.53;;;15.70;99.90;;;;;;5001892;28;20062;-49
2022/08/08 06:06:05;;;;;;;8.57;5.50;;;16.00;99.90;;;;;;5012336;28;20136;-50
2022/08/08 06:08:49;;;;;;;6.15;4.40;;;16.10;99.90;;;;;;5012771;28;20478;-49
2022/08/08 06:11:15;;;;;;;;;;;16.20;99.90;;;;;;4998425;28;20042;-52
2022/08/08 06:13:41;;;;;;;8.63;4.95;;;16.20;99.90;;;;;;5011896;28;20016;-48
2022/08/08 06:16:12;;;;;;;11.40;4.80;;;16.20;99.90;;;;;;4994738;28;20084;-51
2022/08/08 06:18:39;;;;;;;8.00;4.65;;;16.30;99.90;;;;;;5009551;28;20296;-50
2022/08/08 06:21:07;;;;;;;10.23;4.93;;;16.30;99.90;;;;;;5011931;28;20100;-51
2022/08/08 06:23:33;;;;;;;11.60;4.40;;;16.40;99.90;;;;;;4995412;28;20439;-51
2022/08/08 06:26:05;;;;;;;8.25;4.57;;;16.40;99.90;;;;;;4992639;28;20077;-52
2022/08/08 06:28:52;;;;;;;7.18;4.28;;;16.50;99.90;;;;;;4997349;28;20069;-51
2022/08/08 06:31:21;;;;;;;7.18;4.35;;;16.50;99.90;;;;;;5010741;28;20034;-52
2022/08/08 06:34:18;;;;;;;7.55;4.07;;;16.70;99.90;;;;;;5010904;28;20038;-49
2022/08/08 06:36:45;;;;;;;8.73;5.15;;;16.70;99.90;;;;;;5012079;28;20458;-47
2022/08/08 06:39:13;;;;;;;8.48;4.90;;;16.80;99.90;;;;;;5011985;28;20394;-49
2022/08/08 06:42:01;;;;;;;9.43;4.53;;;16.70;99.90;;;;;;4998878;28;20046;-50
2022/08/08 06:44:28;;;;;;;8.77;4.32;;;16.90;99.90;;;;;;5011690;28;20361;-49
2022/08/08 06:46:54;;;;;;;7.15;4.28;;;17.00;99.90;;;;;;5000955;28;20042;-48
2022/08/08 06:49:20;;;;;;;8.38;4.40;;;17.00;99.90;;;;;;4997580;28;20048;-51
2022/08/08 06:51:46;;;;;;;8.85;4.32;;;17.10;99.90;;;;;;5011483;28;20468;-50
2022/08/08 06:54:13;;;;;;;6.85;3.85;;;17.10;99.90;;;;;;4993270;28;20045;-52
2022/08/08 06:56:38;;;;;;;8.98;3.63;;;17.20;99.90;;;;;;5002846;28;20400;-51
2022/08/08 06:59:05;;;;;;;9.63;3.63;;;17.20;99.90;;;;;;5009521;28;20042;-49
2022/08/08 07:01:37;;;;;;;8.00;3.58;;;17.30;99.90;;;;;;5011655;28;20125;-47
2022/08/08 07:04:10;;;;;;;14.90;3.13;;;17.40;99.90;;;;;;4999721;28;20031;-51
2022/08/08 07:06:41;;;;;;;5.88;2.72;;;17.40;99.90;;;;;;5010150;28;20044;-51
2022/08/08 07:09:12;;;;;;;6.53;2.67;;;17.50;99.90;;;;;;5011404;28;20030;-49
2022/08/08 07:11:41;;;;;;;6.97;2.58;;;17.60;99.90;;;;;;5001862;28;20518;-48
2022/08/08 07:14:10;;;;;;;6.60;2.50;;;17.60;99.90;;;;;;5010474;28;20069;-47
2022/08/08 07:17:08;;;;;;;10.35;2.85;;;17.60;99.90;;;;;;4977991;28;20533;-51
2022/08/08 07:19:44;;;;;;;8.85;2.03;;;17.70;99.90;;;;;;4960093;28;20085;-49
2022/08/08 07:22:13;;;;;;;5.25;1.70;;;17.80;99.90;;;;;;5002070;28;20060;-52
2022/08/08 07:25:00;;;;;;;6.65;2.38;;;17.80;99.90;;;;;;5005584;28;20505;-50
2022/08/08 07:27:29;;;;;;;8.77;2.33;;;17.80;99.90;;;;;;5005630;28;20505;-49
2022/08/08 07:29:56;;;;;;;4.07;1.77;;;17.90;99.90;;;;;;5002686;28;20047;-47
2022/08/08 07:32:22;;;;;;;6.07;2.03;;;18.00;99.90;;;;;;4999542;28;20040;-49
2022/08/08 07:34:49;;;;;;;8.65;2.13;;;18.00;99.90;;;;;;4997835;28;20050;-51
2022/08/08 07:37:15;;;;;;;4.22;1.63;;;18.00;99.90;;;;;;5001609;28;20438;-52
2022/08/08 07:39:42;;;;;;;4.38;1.80;;;18.10;99.90;;;;;;5008398;28;20112;-48
2022/08/08 07:42:16;;;;;;;6.03;2.15;;;18.20;99.90;;;;;;5007626;28;20442;-47
2022/08/08 07:44:43;;;;;;;6.93;1.73;;;18.20;99.90;;;;;;5006450;28;20441;-49
2022/08/08 07:47:09;;;;;;;6.15;1.98;;;18.20;99.90;;;;;;5007519;28;20116;-50
2022/08/08 07:49:40;;;;;;;10.00;2.00;;;18.30;99.90;;;;;;5006254;28;20445;-49
2022/08/08 07:52:11;;;;;;;5.25;1.85;;;18.30;99.90;;;;;;5007962;28;20512;-49
2022/08/08 07:54:52;;;;;;;5.78;2.15;;;18.40;99.90;;;;;;5010918;28;20065;-51
2022/08/08 07:57:17;;;;;;;6.22;2.38;;;18.50;99.90;;;;;;5011184;28;20044;-51
2022/08/08 07:59:56;;;;;;;8.82;2.17;;;18.60;99.90;;;;;;5012299;28;20042;-52
2022/08/08 08:02:29;;;;;;;6.95;2.35;;;18.60;99.90;;;;;;5008131;28;20044;-50
2022/08/08 08:04:59;;;;;;;6.18;1.95;;;18.50;99.90;;;;;;5012810;28;20050;-50
2022/08/08 08:07:33;;;;;;;4.05;1.55;;;18.60;99.90;;;;;;5010480;28;20033;-50
2022/08/08 08:10:01;;;;;;;6.50;1.58;;;18.60;99.90;;;;;;5009842;28;20045;-52
2022/08/08 08:12:27;;;;;;;5.35;1.67;;;18.60;99.90;;;;;;5010449;28;20038;-51
2022/08/08 08:15:03;;;;;;;4.60;1.63;;;18.70;99.90;;;;;;5010022;28;20046;-53
2022/08/08 08:17:29;;;;;;;5.10;1.50;;;19.00;99.90;;;;;;5011274;28;20089;-50
2022/08/08 08:20:00;;;;;;;6.15;1.60;;;19.20;99.90;;;;;;5007128;28;20054;-50
2022/08/08 08:22:26;;;;;;;5.10;1.58;;;19.40;99.90;;;;;;5008077;28;20135;-50
2022/08/08 08:24:51;;;;;;;6.55;1.70;;;19.40;99.90;;;;;;5010176;28;20128;-51
2022/08/08 08:27:18;;;;;;;4.43;1.38;;;19.40;99.90;;;;;;5010479;28;20041;-51
2022/08/08 08:29:44;;;;;;;4.50;1.42;;;19.30;99.90;;;;;;5010037;28;20924;-51
2022/08/08 08:32:10;;;;;;;5.43;1.40;;;19.20;99.90;;;;;;5013724;28;20515;-52
2022/08/08 08:34:36;;;;;;;6.28;1.50;;;19.20;99.90;;;;;;5012350;28;20045;-53
2022/08/08 08:37:03;;;;;;;4.00;1.45;;;19.40;99.90;;;;;;5012020;28;20048;-55
2022/08/08 08:39:28;;;;;;;3.38;1.10;;;19.20;99.90;;;;;;5012585;28;20095;-51
2022/08/08 08:41:56;;;;;;;4.85;1.27;;;19.20;99.90;;;;;;5012804;28;20041;-49
2022/08/08 08:44:24;;;;;;;3.65;1.40;;;19.20;99.90;;;;;;5010996;28;20081;-49
2022/08/08 08:46:51;;;;;;;3.85;1.10;;;19.30;99.90;;;;;;5012714;28;20041;-49
2022/08/08 08:49:17;;;;;;;4.18;1.20;;;19.50;99.90;;;;;;5011621;28;20379;-51
2022/08/08 08:51:45;;;;;;;5.03;1.13;;;19.60;99.90;;;;;;5009079;28;20037;-51
2022/08/08 08:54:12;;;;;;;2.97;1.00;;;19.80;99.90;;;;;;5009514;28;20044;-50
2022/08/08 08:56:39;;;;;;;4.72;1.15;;;20.00;99.90;;;;;;5008987;28;20141;-50
2022/08/08 08:59:05;;;;;;;3.08;1.10;;;20.10;99.90;;;;;;5011163;28;20118;-52
2022/08/08 09:01:37;;;;;;;3.58;0.90;;;20.10;99.90;;;;;;5010332;28;20044;-51
2022/08/08 09:04:13;;;;;;;3.97;1.05;;;19.90;99.90;;;;;;5008727;28;20045;-50
2022/08/08 09:06:41;;;;;;;3.15;1.00;;;19.80;99.90;;;;;;5006331;28;20042;-48
2022/08/08 09:09:12;;;;;;;3.08;0.77;;;19.80;99.90;;;;;;5007529;28;20128;-51
2022/08/08 09:11:39;;;;;;;3.65;0.85;;;20.00;99.90;;;;;;5009370;28;20038;-48
2022/08/08 09:14:08;;;;;;;1.92;0.70;;;20.40;99.90;;;;;;5006896;28;20128;-52
2022/08/08 09:16:34;;;;;;;1.92;0.75;;;20.50;99.90;;;;;;5009125;28;20497;-49
2022/08/08 09:19:00;;;;;;;3.35;0.90;;;20.80;99.90;;;;;;5010272;28;20026;-52
2022/08/08 09:21:27;;;;;;;3.97;0.77;;;21.00;99.90;;;;;;5010179;28;20065;-51
2022/08/08 09:23:54;;;;;;;4.45;0.93;;;21.20;99.90;;;;;;5006297;28;20041;-50
2022/08/08 09:26:34;;;;;;;3.20;0.93;;;21.40;99.90;;;;;;5009894;28;20052;-52
2022/08/08 09:29:01;;;;;;;4.00;0.90;;;21.80;99.90;;;;;;5009286;28;20389;-51
2022/08/08 09:31:52;;;;;;;2.47;0.85;;;21.50;99.90;;;;;;5010826;28;20489;-52
2022/08/08 09:34:19;;;;;;;2.67;1.10;;;21.40;99.80;;;;;;4993877;28;20481;-50
2022/08/08 09:36:47;;;;;;;3.60;1.00;;;21.90;99.90;;;;;;5007696;28;20046;-52
2022/08/08 09:39:18;;;;;;;3.20;1.00;;;22.30;99.70;;;;;;5010075;28;20040;-49
2022/08/08 09:42:07;;;;;;;3.40;0.95;;;22.40;99.90;;;;;;5010602;28;20052;-53
2022/08/08 09:44:58;;;;;;;3.28;0.90;;;22.30;99.30;;;;;;5011618;28;20112;-51
2022/08/08 09:47:27;;;;;;;2.45;0.90;;;22.60;99.80;;;;;;5009436;28;20034;-52
2022/08/08 09:49:57;;;;;;;3.65;0.77;;;22.70;98.50;;;;;;5009387;28;20033;-49
2022/08/08 09:52:27;;;;;;;2.35;0.77;;;22.90;98.80;;;;;;5009523;28;20033;-50
2022/08/08 09:54:53;;;;;;;3.10;0.70;;;22.80;98.80;;;;;;5008160;28;20041;-50
2022/08/08 09:57:34;;;;;;;3.50;0.90;;;23.00;98.40;;;;;;5007814;28;20073;-52
2022/08/08 10:00:01;;;;;;;4.13;0.90;;;22.90;97.70;;;;;;5006257;28;20042;-50
2022/08/08 10:02:35;;;;;;;3.25;0.90;;;22.60;99.00;;;;;;5008371;28;20557;-51
2022/08/08 10:05:04;;;;;;;4.75;0.90;;;22.00;99.60;;;;;;5009384;28;20117;-50
2022/08/08 10:07:30;;;;;;;3.17;0.98;;;22.30;99.90;;;;;;5007591;28;20039;-47
2022/08/08 10:09:55;;;;;;;3.40;1.00;;;22.20;99.90;;;;;;5009240;28;20095;-49
2022/08/08 10:12:37;;;;;;;2.95;0.88;;;21.90;99.90;;;;;;5007104;28;20548;-51
2022/08/08 10:15:06;;;;;;;2.13;0.65;;;21.70;99.90;;;;;;5006499;28;20084;-50
2022/08/08 10:17:42;;;;;;;4.15;0.90;;;21.60;99.80;;;;;;4990169;28;20038;-49
2022/08/08 10:20:09;;;;;;;2.10;0.80;;;22.00;99.60;;;;;;4987121;28;20495;-52
2022/08/08 10:22:37;;;;;;;2.35;0.60;;;22.30;99.80;;;;;;5007459;28;20101;-51
2022/08/08 10:25:05;;;;;;;2.80;0.77;;;22.50;98.80;;;;;;5002713;28;20088;-48
2022/08/08 10:27:41;;;;;;;2.45;0.70;;;22.20;98.50;;;;;;5007062;28;20060;-51
2022/08/08 10:30:08;;;;;;;1.92;0.60;;;22.10;98.80;;;;;;5005894;28;20038;-52
2022/08/08 10:32:39;;;;;;;3.03;0.77;;;22.40;98.50;;;;;;5002387;28;20100;-48
2022/08/08 10:35:14;;;;;;;3.20;0.60;;;22.40;98.70;;;;;;5007875;28;20129;-50
2022/08/08 10:38:04;;;;;;;4.68;0.82;;;22.80;97.10;;;;;;5008596;28;20064;-49
2022/08/08 10:40:30;;;;;;;2.47;0.90;;;23.10;96.70;;;;;;5009240;28;20042;-50
2022/08/08 10:42:59;;;;;;;4.90;0.85;;;22.80;96.90;;;;;;5006479;28;20490;-50
2022/08/08 10:45:25;;;;;;;2.55;0.80;;;22.60;96.70;;;;;;5007250;28;20033;-50
2022/08/08 10:47:53;;;;;;;3.05;0.80;;;23.00;97.20;;;;;;5010030;28;20084;-52
2022/08/08 10:50:19;;;;;;;2.85;0.70;;;23.20;96.50;;;;;;5006012;28;20049;-51
2022/08/08 10:52:44;;;;;;;3.47;0.70;;;23.30;97.30;;;;;;5009129;28;20398;-51
2022/08/08 10:55:13;;;;;;;1.48;0.60;;;23.10;96.90;;;;;;5009267;28;20045;-50
2022/08/08 10:57:46;;;;;;;2.40;0.57;;;22.80;96.60;;;;;;5008943;28;20046;-50
2022/08/08 11:00:19;;;;;;;1.98;0.57;;;22.60;96.60;;;;;;5009394;28;20069;-49
2022/08/08 11:02:45;;;;;;;2.55;0.68;;;22.70;96.70;;;;;;5009323;28;20033;-50
2022/08/08 11:05:12;;;;;;;4.35;0.65;;;22.80;97.00;;;;;;4991718;28;20389;-51
2022/08/08 11:07:46;;;;;;;2.88;0.60;;;23.10;96.70;;;;;;5008555;28;20042;-50
2022/08/08 11:10:14;;;;;;;2.40;0.52;;;23.10;96.10;;;;;;5008939;28;20033;-53
2022/08/08 11:12:58;;;;;;;2.85;0.60;;;22.80;96.30;;;;;;5008376;28;20052;-50
2022/08/08 11:15:25;;;;;;;;;;;22.60;96.20;;;;;;5009297;28;20549;-51
2022/08/08 11:17:51;;;;;;;3.38;0.60;;;22.50;96.90;;;;;;5009853;28;20328;-49
2022/08/08 11:20:23;;;;;;;4.70;0.80;;;22.40;96.40;;;;;;5007695;28;20081;-51
2022/08/08 11:22:56;;;;;;;2.20;0.50;;;22.70;96.60;;;;;;5010153;28;20065;-51
2022/08/08 11:25:24;;;;;;;2.50;0.60;;;23.00;96.20;;;;;;5009511;28;20038;-54
2022/08/08 11:27:54;;;;;;;1.92;0.50;;;23.40;96.10;;;;;;5009461;28;20156;-52
2022/08/08 11:30:22;;;;;;;2.00;0.40;;;23.90;95.60;;;;;;5009601;28;20042;-50
2022/08/08 11:32:52;;;;;;;2.35;0.60;;;24.00;95.90;;;;;;5009840;28;20548;-49
2022/08/08 11:35:20;;;;;;;2.20;0.70;;;24.10;96.20;;;;;;5009044;28;20097;-53
2022/08/08 11:37:46;;;;;;;2.40;0.75;;;24.20;97.00;;;;;;5008821;28;20092;-49
2022/08/08 11:40:13;;;;;;;3.72;0.90;;;23.80;96.70;;;;;;5008500;28;20052;-53
2022/08/08 11:42:41;;;;;;;2.50;0.65;;;23.80;97.70;;;;;;5009353;28;20108;-53
2022/08/08 11:45:08;;;;;;;5.28;0.80;;;23.80;97.60;;;;;;5008386;28;20136;-51
2022/08/08 11:47:35;;;;;;;2.30;0.50;;;24.30;97.10;;;;;;5008013;28;20386;-49
2022/08/08 11:50:13;;;;;;;2.25;0.70;;;24.30;96.30;;;;;;5008502;28;20053;-51
2022/08/08 11:52:39;;;;;;;2.08;0.70;;;24.40;96.20;;;;;;5009175;28;20069;-52
2022/08/08 11:55:18;;;;;;;2.72;0.65;;;23.90;95.80;;;;;;5007413;28;20030;-50
2022/08/08 11:57:44;;;;;;;2.45;0.70;;;23.80;95.90;;;;;;5008962;28;20116;-52
2022/08/08 12:00:16;;;;;;;3.97;1.15;;;23.60;96.00;;;;;;5008663;28;20120;-52
2022/08/08 12:02:55;;;;;;;2.20;0.75;;;23.90;95.90;;;;;;5008837;28;20045;-50
2022/08/08 12:05:37;;;;;;;1.20;0.47;;;24.10;95.20;;;;;;5008435;28;20391;-52
2022/08/08 12:08:03;;;;;;;2.38;0.63;;;24.40;95.00;;;;;;5009672;28;20041;-53
2022/08/08 12:10:29;;;;;;;3.22;0.60;;;23.90;95.60;;;;;;5009341;28;20181;-50
2022/08/08 12:13:08;;;;;;;2.05;0.68;;;23.60;96.00;;;;;;5009580;28;20034;-53
2022/08/08 12:15:36;;;;;;;2.95;0.70;;;24.10;95.50;;;;;;5009691;28;20095;-50
2022/08/08 12:18:23;;;;;;;3.03;0.60;;;24.30;95.90;;;;;;5008661;28;20046;-49
2022/08/08 12:20:53;;;;;;;3.58;0.82;;;24.50;95.40;;;;;;5008392;28;20062;-49
2022/08/08 12:23:34;;;;;;;4.03;0.90;;;24.60;94.40;;;;;;4992401;28;20037;-49
2022/08/08 12:26:14;;;;;;;3.30;0.73;;;24.90;94.60;;;;;;5008581;28;20444;-52
2022/08/08 12:28:51;;;;;;;3.67;0.50;;;25.30;94.10;;;;;;5007977;28;20045;-52
2022/08/08 12:31:28;;;;;;;3.95;0.70;;;25.30;93.60;;;;;;5007342;28;20132;-51
2022/08/08 12:33:53;;;;;;;2.72;0.50;;;25.40;93.90;;;;;;4991077;28;20478;-53
2022/08/08 12:36:19;;;;;;;4.00;0.50;;;25.40;93.00;;;;;;5008609;28;20038;-50
2022/08/08 12:38:49;;;;;;;2.83;0.60;;;25.20;92.90;;;;;;5007494;28;20046;-51
2022/08/08 12:41:32;;;;;;;3.10;0.55;;;25.50;92.90;;;;;;5010884;28;20494;-53
2022/08/08 12:44:09;;;;;;;1.87;0.57;;;25.40;93.20;;;;;;5011404;28;20033;-54
2022/08/08 12:46:35;;;;;;;1.90;0.50;;;25.70;92.40;;;;;;4994147;28;20078;-52
2022/08/08 12:49:03;;;;;;;1.80;0.50;;;25.50;92.50;;;;;;5011032;28;20052;-52
2022/08/08 12:51:49;;;;;;;1.58;0.50;;;25.90;91.90;;;;;;5011915;28;20037;-51
2022/08/08 12:54:27;;;;;;;1.27;0.30;;;25.60;92.10;;;;;;5010437;28;20583;-52
2022/08/08 12:56:52;;;;;;;1.05;0.40;;;25.80;91.70;;;;;;4978297;28;20042;-48
2022/08/08 12:59:22;;;;;;;2.78;0.45;;;26.00;91.50;;;;;;5009901;28;20112;-51
2022/08/08 13:01:56;;;;;;;2.08;0.50;;;26.30;91.70;;;;;;5013396;28;20042;-51
2022/08/08 13:04:32;;;;;;;2.67;0.52;;;26.80;91.10;;;;;;5012833;28;20038;-54
2022/08/08 13:07:01;;;;;;;2.55;0.50;;;26.50;90.60;;;;;;5012912;28;20092;-48
2022/08/08 13:09:41;;;;;;;1.98;0.40;;;26.90;90.90;;;;;;5013017;28;20042;-50
2022/08/08 13:12:28;;;;;;;1.42;0.40;;;26.60;89.60;;;;;;5007068;28;20030;-50
2022/08/08 13:14:55;;;;;;;2.50;0.65;;;26.20;90.60;;;;;;5012301;28;20038;-50
2022/08/08 13:17:25;;;;;;;2.03;0.50;;;26.00;91.40;;;;;;5013249;28;20046;-49
2022/08/08 13:19:53;;;;;;;2.63;0.60;;;25.90;91.60;;;;;;5012781;28;20637;-51
2022/08/08 13:22:20;;;;;;;3.78;0.40;;;26.00;91.10;;;;;;5012101;28;20136;-52
2022/08/08 13:24:46;;;;;;;2.22;0.60;;;25.50;91.50;;;;;;4979345;28;20089;-52
2022/08/08 13:27:16;;;;;;;2.38;0.60;;;25.50;90.90;;;;;;5013173;28;20065;-51
2022/08/08 13:30:00;;;;;;;3.53;0.70;;;25.50;91.40;;;;;;5012857;28;20045;-50